メインページ
METAR-TAF:

METAR-TAF

空港 :

ウシュアイア国際空港

ウシュアイア, アルゼンチン

緯度: 54-48S, 経度: 068-19W, 海抜: 16m

現時点の気象観測

当レポートは2時間27分前の02:00(UTC)に作成
西/南西の風 18kt、最大30ktの突風を伴う
気温 3°C
湿度 81%
気圧 1004 hPa
視程10km以上
高度3500ftの雲はほとんどない

METAR: SAWH 220200Z 25018G30KT 9999 FEW035 03/M00 Q1004

時間: 01:27 (04:27 UTC)

予報

当レポートは5時間27分前の23:00(UTC)に作成
予報は22日の 00時(UTC)から 22日の 24時(UTC)まで有効
西/南西の風 20kt、最大30ktの突風を伴う
視程10km以上
高度1000ftの雲は散在している
高度3000ftの雲は散在している
22日の 04時(UTC)から 22日の 06時(UTC)まで徐々に
西/南西の風 5kt
高度3000ftの雲は散在している

TAF: SAWH 212300Z 2200/2224 25020G30KT 9999 SCT010 SCT030 TX04/2218Z TN01/2211Z BECMG 2204/2206 25005KT NSW SCT030

4,000以上の空港の気象観測と天気予報(METAR報とTAF報)

利用可能な観測所は地図上に黄色い丸と赤い丸で示す。

丸の上にカーソルを重ねると観測所名を参照できる。

次にクリックすると気象観測と天気予報を参照できる。

マップの切り替え:黒色「×」印の緑ボタンをクリックして拡大、「-」印の緑ボタンをクリックして縮小、緑色の三角印をクリックして隣りの地図に切り替え


METAR-TAF: